sensor_id;sensor_type;location;lat;lon;timestamp;P1;durP1;ratioP1;P2;durP2;ratioP2
78732;SDS011;68056;52.530;5.454;2024-02-21T00:01:53;4.68;;;1.17;;
78732;SDS011;68056;52.530;5.454;2024-02-21T00:04:18;9.00;;;1.70;;
78732;SDS011;68056;52.530;5.454;2024-02-21T00:06:44;6.85;;;0.93;;
78732;SDS011;68056;52.530;5.454;2024-02-21T00:09:10;6.10;;;1.40;;
78732;SDS011;68056;52.530;5.454;2024-02-21T00:11:35;6.28;;;1.88;;
78732;SDS011;68056;52.530;5.454;2024-02-21T00:14:02;6.93;;;2.08;;
78732;SDS011;68056;52.530;5.454;2024-02-21T00:16:28;6.47;;;1.88;;
78732;SDS011;68056;52.530;5.454;2024-02-21T00:18:55;5.47;;;1.25;;
78732;SDS011;68056;52.530;5.454;2024-02-21T00:21:21;4.82;;;1.27;;
78732;SDS011;68056;52.530;5.454;2024-02-21T00:23:47;7.00;;;1.35;;
78732;SDS011;68056;52.530;5.454;2024-02-21T00:26:12;7.53;;;1.30;;
78732;SDS011;68056;52.530;5.454;2024-02-21T00:28:39;4.97;;;1.13;;
78732;SDS011;68056;52.530;5.454;2024-02-21T00:31:04;8.82;;;1.88;;
78732;SDS011;68056;52.530;5.454;2024-02-21T00:33:30;9.20;;;1.55;;
78732;SDS011;68056;52.530;5.454;2024-02-21T00:35:56;5.22;;;2.10;;
78732;SDS011;68056;52.530;5.454;2024-02-21T00:38:21;8.77;;;1.90;;
78732;SDS011;68056;52.530;5.454;2024-02-21T00:40:47;5.82;;;1.48;;
78732;SDS011;68056;52.530;5.454;2024-02-21T00:43:12;11.75;;;1.50;;
78732;SDS011;68056;52.530;5.454;2024-02-21T00:45:38;9.35;;;1.75;;
78732;SDS011;68056;52.530;5.454;2024-02-21T00:48:04;9.38;;;3.05;;
78732;SDS011;68056;52.530;5.454;2024-02-21T00:50:30;9.38;;;1.63;;
78732;SDS011;68056;52.530;5.454;2024-02-21T00:52:55;5.25;;;1.50;;
78732;SDS011;68056;52.530;5.454;2024-02-21T00:55:21;10.57;;;2.45;;
78732;SDS011;68056;52.530;5.454;2024-02-21T00:57:46;12.48;;;1.35;;
78732;SDS011;68056;52.530;5.454;2024-02-21T01:00:12;6.45;;;1.55;;
78732;SDS011;68056;52.530;5.454;2024-02-21T01:02:38;11.40;;;2.15;;
78732;SDS011;68056;52.530;5.454;2024-02-21T01:05:04;11.77;;;1.63;;
78732;SDS011;68056;52.530;5.454;2024-02-21T01:07:30;6.32;;;1.75;;
78732;SDS011;68056;52.530;5.454;2024-02-21T01:09:55;14.00;;;2.00;;
78732;SDS011;68056;52.530;5.454;2024-02-21T01:12:21;12.00;;;1.77;;
78732;SDS011;68056;52.530;5.454;2024-02-21T01:14:46;7.55;;;1.50;;
78732;SDS011;68056;52.530;5.454;2024-02-21T01:17:16;5.07;;;1.58;;
78732;SDS011;68056;52.530;5.454;2024-02-21T01:19:42;12.13;;;1.85;;
78732;SDS011;68056;52.530;5.454;2024-02-21T01:22:11;15.93;;;2.38;;
78732;SDS011;68056;52.530;5.454;2024-02-21T01:24:36;8.20;;;1.73;;
78732;SDS011;68056;52.530;5.454;2024-02-21T01:27:02;8.10;;;1.73;;
78732;SDS011;68056;52.530;5.454;2024-02-21T01:29:28;7.53;;;1.67;;
78732;SDS011;68056;52.530;5.454;2024-02-21T01:31:53;6.97;;;1.73;;
78732;SDS011;68056;52.530;5.454;2024-02-21T01:34:19;13.02;;;2.00;;
78732;SDS011;68056;52.530;5.454;2024-02-21T01:36:45;8.75;;;2.03;;
78732;SDS011;68056;52.530;5.454;2024-02-21T01:39:11;8.75;;;1.73;;
78732;SDS011;68056;52.530;5.454;2024-02-21T01:41:36;6.18;;;1.25;;
78732;SDS011;68056;52.530;5.454;2024-02-21T01:44:02;8.15;;;1.63;;
78732;SDS011;68056;52.530;5.454;2024-02-21T01:46:28;6.72;;;1.60;;
78732;SDS011;68056;52.530;5.454;2024-02-21T01:48:55;10.32;;;1.88;;
78732;SDS011;68056;52.530;5.454;2024-02-21T01:51:21;11.00;;;1.73;;
78732;SDS011;68056;52.530;5.454;2024-02-21T01:53:48;10.65;;;2.72;;
78732;SDS011;68056;52.530;5.454;2024-02-21T01:56:16;5.32;;;1.30;;
78732;SDS011;68056;52.530;5.454;2024-02-21T01:58:42;5.30;;;2.03;;
78732;SDS011;68056;52.530;5.454;2024-02-21T02:01:09;11.13;;;2.05;;
78732;SDS011;68056;52.530;5.454;2024-02-21T02:03:35;5.65;;;1.33;;
78732;SDS011;68056;52.530;5.454;2024-02-21T02:06:01;5.97;;;1.83;;
78732;SDS011;68056;52.530;5.454;2024-02-21T02:08:27;5.65;;;1.52;;
78732;SDS011;68056;52.530;5.454;2024-02-21T02:10:53;8.57;;;1.80;;
78732;SDS011;68056;52.530;5.454;2024-02-21T02:13:19;10.90;;;1.75;;
78732;SDS011;68056;52.530;5.454;2024-02-21T02:15:45;4.03;;;1.08;;
78732;SDS011;68056;52.530;5.454;2024-02-21T02:18:12;8.75;;;2.00;;
78732;SDS011;68056;52.530;5.454;2024-02-21T02:20:39;8.93;;;1.90;;
78732;SDS011;68056;52.530;5.454;2024-02-21T02:23:12;8.85;;;1.67;;
78732;SDS011;68056;52.530;5.454;2024-02-21T02:28:14;8.30;;;1.88;;
78732;SDS011;68056;52.530;5.454;2024-02-21T02:30:45;6.75;;;1.70;;
78732;SDS011;68056;52.530;5.454;2024-02-21T02:33:11;11.27;;;2.25;;
78732;SDS011;68056;52.530;5.454;2024-02-21T02:35:36;9.07;;;1.90;;
78732;SDS011;68056;52.530;5.454;2024-02-21T02:38:05;8.75;;;1.98;;
78732;SDS011;68056;52.530;5.454;2024-02-21T02:40:31;9.13;;;1.55;;
78732;SDS011;68056;52.530;5.454;2024-02-21T02:42:58;10.75;;;2.05;;
78732;SDS011;68056;52.530;5.454;2024-02-21T02:45:25;8.45;;;1.38;;
78732;SDS011;68056;52.530;5.454;2024-02-21T02:47:54;13.20;;;2.05;;
78732;SDS011;68056;52.530;5.454;2024-02-21T02:50:22;8.27;;;1.50;;
78732;SDS011;68056;52.530;5.454;2024-02-21T02:52:48;5.32;;;1.40;;
78732;SDS011;68056;52.530;5.454;2024-02-21T02:55:14;9.35;;;1.80;;
78732;SDS011;68056;52.530;5.454;2024-02-21T02:57:41;7.97;;;1.65;;
78732;SDS011;68056;52.530;5.454;2024-02-21T03:00:07;9.02;;;1.85;;
78732;SDS011;68056;52.530;5.454;2024-02-21T03:02:34;5.88;;;1.88;;
78732;SDS011;68056;52.530;5.454;2024-02-21T03:05:00;11.70;;;2.00;;
78732;SDS011;68056;52.530;5.454;2024-02-21T03:07:26;12.18;;;1.85;;
78732;SDS011;68056;52.530;5.454;2024-02-21T03:09:51;14.25;;;2.25;;
78732;SDS011;68056;52.530;5.454;2024-02-21T03:12:18;13.98;;;2.45;;
78732;SDS011;68056;52.530;5.454;2024-02-21T03:14:49;6.95;;;1.83;;
78732;SDS011;68056;52.530;5.454;2024-02-21T03:17:15;8.43;;;1.63;;
78732;SDS011;68056;52.530;5.454;2024-02-21T03:19:41;4.55;;;1.55;;
78732;SDS011;68056;52.530;5.454;2024-02-21T03:22:07;6.25;;;1.50;;
78732;SDS011;68056;52.530;5.454;2024-02-21T03:24:32;9.60;;;1.75;;
78732;SDS011;68056;52.530;5.454;2024-02-21T03:26:58;8.65;;;1.85;;
78732;SDS011;68056;52.530;5.454;2024-02-21T03:29:24;7.43;;;1.98;;
78732;SDS011;68056;52.530;5.454;2024-02-21T03:31:50;11.23;;;1.55;;
78732;SDS011;68056;52.530;5.454;2024-02-21T03:34:16;13.40;;;2.15;;
78732;SDS011;68056;52.530;5.454;2024-02-21T03:36:41;9.65;;;1.83;;
78732;SDS011;68056;52.530;5.454;2024-02-21T03:39:07;7.15;;;1.70;;
78732;SDS011;68056;52.530;5.454;2024-02-21T03:41:34;7.68;;;1.65;;
78732;SDS011;68056;52.530;5.454;2024-02-21T03:44:00;8.95;;;2.35;;
78732;SDS011;68056;52.530;5.454;2024-02-21T03:46:25;10.88;;;2.55;;
78732;SDS011;68056;52.530;5.454;2024-02-21T03:48:52;13.25;;;1.88;;
78732;SDS011;68056;52.530;5.454;2024-02-21T03:51:17;13.27;;;1.90;;
78732;SDS011;68056;52.530;5.454;2024-02-21T03:53:43;8.68;;;1.85;;
78732;SDS011;68056;52.530;5.454;2024-02-21T03:56:09;12.70;;;2.25;;
78732;SDS011;68056;52.530;5.454;2024-02-21T03:58:34;9.05;;;2.00;;
78732;SDS011;68056;52.530;5.454;2024-02-21T04:01:00;9.77;;;1.55;;
78732;SDS011;68056;52.530;5.454;2024-02-21T04:03:27;8.10;;;1.60;;
78732;SDS011;68056;52.530;5.454;2024-02-21T04:05:53;6.38;;;1.75;;
78732;SDS011;68056;52.530;5.454;2024-02-21T04:08:18;7.97;;;1.77;;
78732;SDS011;68056;52.530;5.454;2024-02-21T04:10:44;8.52;;;1.52;;
78732;SDS011;68056;52.530;5.454;2024-02-21T04:13:09;7.72;;;2.17;;
78732;SDS011;68056;52.530;5.454;2024-02-21T04:15:35;9.40;;;1.40;;
78732;SDS011;68056;52.530;5.454;2024-02-21T04:18:01;7.18;;;1.75;;
78732;SDS011;68056;52.530;5.454;2024-02-21T04:20:28;6.05;;;1.38;;
78732;SDS011;68056;52.530;5.454;2024-02-21T04:22:54;8.23;;;1.73;;
78732;SDS011;68056;52.530;5.454;2024-02-21T04:25:20;7.25;;;1.30;;
78732;SDS011;68056;52.530;5.454;2024-02-21T04:27:46;9.73;;;1.85;;
78732;SDS011;68056;52.530;5.454;2024-02-21T04:30:11;7.18;;;2.22;;
78732;SDS011;68056;52.530;5.454;2024-02-21T04:32:37;6.57;;;1.40;;
78732;SDS011;68056;52.530;5.454;2024-02-21T04:35:03;4.38;;;1.67;;
78732;SDS011;68056;52.530;5.454;2024-02-21T04:37:29;8.32;;;1.67;;
78732;SDS011;68056;52.530;5.454;2024-02-21T04:39:55;11.20;;;2.15;;
78732;SDS011;68056;52.530;5.454;2024-02-21T04:42:21;6.53;;;1.45;;
78732;SDS011;68056;52.530;5.454;2024-02-21T04:44:47;10.57;;;3.05;;
78732;SDS011;68056;52.530;5.454;2024-02-21T04:47:15;8.82;;;2.72;;
78732;SDS011;68056;52.530;5.454;2024-02-21T04:49:41;10.40;;;2.90;;
78732;SDS011;68056;52.530;5.454;2024-02-21T04:52:07;12.43;;;4.30;;
78732;SDS011;68056;52.530;5.454;2024-02-21T04:54:34;14.65;;;4.90;;
78732;SDS011;68056;52.530;5.454;2024-02-21T04:57:00;13.55;;;4.82;;
78732;SDS011;68056;52.530;5.454;2024-02-21T04:59:26;8.63;;;5.07;;
78732;SDS011;68056;52.530;5.454;2024-02-21T05:01:53;13.18;;;5.47;;
78732;SDS011;68056;52.530;5.454;2024-02-21T05:04:19;13.48;;;4.90;;
78732;SDS011;68056;52.530;5.454;2024-02-21T05:06:44;14.25;;;5.65;;
78732;SDS011;68056;52.530;5.454;2024-02-21T05:09:10;13.50;;;5.68;;
78732;SDS011;68056;52.530;5.454;2024-02-21T05:11:36;18.25;;;5.82;;
78732;SDS011;68056;52.530;5.454;2024-02-21T05:14:02;20.13;;;6.07;;
78732;SDS011;68056;52.530;5.454;2024-02-21T05:16:29;13.10;;;7.00;;
78732;SDS011;68056;52.530;5.454;2024-02-21T05:18:54;13.18;;;5.15;;
78732;SDS011;68056;52.530;5.454;2024-02-21T05:21:21;13.88;;;4.60;;
78732;SDS011;68056;52.530;5.454;2024-02-21T05:23:48;13.45;;;4.25;;
78732;SDS011;68056;52.530;5.454;2024-02-21T05:26:21;9.43;;;4.03;;
78732;SDS011;68056;52.530;5.454;2024-02-21T05:28:50;9.20;;;4.05;;
78732;SDS011;68056;52.530;5.454;2024-02-21T05:31:17;15.10;;;4.18;;
78732;SDS011;68056;52.530;5.454;2024-02-21T05:33:43;9.05;;;4.18;;
78732;SDS011;68056;52.530;5.454;2024-02-21T05:36:09;9.43;;;3.13;;
78732;SDS011;68056;52.530;5.454;2024-02-21T05:38:35;11.48;;;3.60;;
78732;SDS011;68056;52.530;5.454;2024-02-21T05:41:01;10.48;;;3.17;;
78732;SDS011;68056;52.530;5.454;2024-02-21T05:43:27;7.10;;;2.67;;
78732;SDS011;68056;52.530;5.454;2024-02-21T05:45:52;13.55;;;2.53;;
78732;SDS011;68056;52.530;5.454;2024-02-21T05:48:18;4.40;;;2.42;;
78732;SDS011;68056;52.530;5.454;2024-02-21T05:50:45;9.32;;;3.03;;
78732;SDS011;68056;52.530;5.454;2024-02-21T05:53:10;7.97;;;3.13;;
78732;SDS011;68056;52.530;5.454;2024-02-21T05:55:38;9.30;;;3.30;;
78732;SDS011;68056;52.530;5.454;2024-02-21T05:58:05;10.35;;;2.63;;
78732;SDS011;68056;52.530;5.454;2024-02-21T06:00:36;7.35;;;2.95;;
78732;SDS011;68056;52.530;5.454;2024-02-21T06:03:02;7.30;;;2.63;;
78732;SDS011;68056;52.530;5.454;2024-02-21T06:05:28;8.20;;;3.33;;
78732;SDS011;68056;52.530;5.454;2024-02-21T06:07:54;11.05;;;4.53;;
78732;SDS011;68056;52.530;5.454;2024-02-21T06:10:20;9.80;;;3.47;;
78732;SDS011;68056;52.530;5.454;2024-02-21T06:12:45;10.98;;;3.45;;
78732;SDS011;68056;52.530;5.454;2024-02-21T06:15:11;9.52;;;3.47;;
78732;SDS011;68056;52.530;5.454;2024-02-21T06:17:36;6.85;;;3.15;;
78732;SDS011;68056;52.530;5.454;2024-02-21T06:20:02;7.32;;;4.20;;
78732;SDS011;68056;52.530;5.454;2024-02-21T06:22:30;8.98;;;5.28;;
78732;SDS011;68056;52.530;5.454;2024-02-21T06:24:55;9.45;;;4.95;;
78732;SDS011;68056;52.530;5.454;2024-02-21T06:27:21;10.15;;;5.20;;
78732;SDS011;68056;52.530;5.454;2024-02-21T06:29:47;10.30;;;5.55;;
78732;SDS011;68056;52.530;5.454;2024-02-21T06:32:12;10.50;;;4.78;;
78732;SDS011;68056;52.530;5.454;2024-02-21T06:34:38;9.43;;;4.88;;
78732;SDS011;68056;52.530;5.454;2024-02-21T06:37:03;10.70;;;5.35;;
78732;SDS011;68056;52.530;5.454;2024-02-21T06:39:29;7.80;;;5.03;;
78732;SDS011;68056;52.530;5.454;2024-02-21T06:41:55;8.50;;;5.40;;
78732;SDS011;68056;52.530;5.454;2024-02-21T06:44:21;12.50;;;6.57;;
78732;SDS011;68056;52.530;5.454;2024-02-21T06:46:47;9.88;;;6.30;;
78732;SDS011;68056;52.530;5.454;2024-02-21T06:49:13;7.93;;;5.50;;
78732;SDS011;68056;52.530;5.454;2024-02-21T06:51:41;11.18;;;5.60;;
78732;SDS011;68056;52.530;5.454;2024-02-21T06:54:08;12.77;;;5.75;;
78732;SDS011;68056;52.530;5.454;2024-02-21T06:56:34;11.52;;;6.38;;
78732;SDS011;68056;52.530;5.454;2024-02-21T06:59:01;9.73;;;5.38;;
78732;SDS011;68056;52.530;5.454;2024-02-21T07:01:28;11.00;;;6.00;;
78732;SDS011;68056;52.530;5.454;2024-02-21T07:03:54;10.05;;;5.90;;
78732;SDS011;68056;52.530;5.454;2024-02-21T07:06:20;8.48;;;5.22;;
78732;SDS011;68056;52.530;5.454;2024-02-21T07:08:45;13.70;;;6.32;;
78732;SDS011;68056;52.530;5.454;2024-02-21T07:11:11;9.27;;;6.32;;
78732;SDS011;68056;52.530;5.454;2024-02-21T07:13:36;11.10;;;6.93;;
78732;SDS011;68056;52.530;5.454;2024-02-21T07:16:02;11.15;;;6.45;;
78732;SDS011;68056;52.530;5.454;2024-02-21T07:18:28;11.55;;;6.45;;
78732;SDS011;68056;52.530;5.454;2024-02-21T07:20:53;13.57;;;7.38;;
78732;SDS011;68056;52.530;5.454;2024-02-21T07:23:19;11.68;;;6.40;;
78732;SDS011;68056;52.530;5.454;2024-02-21T07:25:45;11.63;;;7.10;;
78732;SDS011;68056;52.530;5.454;2024-02-21T07:28:10;12.65;;;6.38;;
78732;SDS011;68056;52.530;5.454;2024-02-21T07:30:38;11.18;;;6.90;;
78732;SDS011;68056;52.530;5.454;2024-02-21T07:33:04;10.82;;;6.18;;
78732;SDS011;68056;52.530;5.454;2024-02-21T07:35:29;10.55;;;6.80;;
78732;SDS011;68056;52.530;5.454;2024-02-21T07:37:55;11.38;;;6.75;;
78732;SDS011;68056;52.530;5.454;2024-02-21T07:40:21;9.48;;;6.13;;
78732;SDS011;68056;52.530;5.454;2024-02-21T07:42:46;10.98;;;6.40;;
78732;SDS011;68056;52.530;5.454;2024-02-21T07:45:12;11.65;;;7.03;;
78732;SDS011;68056;52.530;5.454;2024-02-21T07:47:37;12.90;;;7.10;;
78732;SDS011;68056;52.530;5.454;2024-02-21T07:50:03;11.60;;;6.40;;
78732;SDS011;68056;52.530;5.454;2024-02-21T07:52:29;9.25;;;6.50;;
78732;SDS011;68056;52.530;5.454;2024-02-21T07:54:55;12.18;;;6.95;;
78732;SDS011;68056;52.530;5.454;2024-02-21T07:57:20;10.10;;;6.03;;
78732;SDS011;68056;52.530;5.454;2024-02-21T07:59:47;12.18;;;7.28;;
78732;SDS011;68056;52.530;5.454;2024-02-21T08:02:13;10.85;;;7.03;;
78732;SDS011;68056;52.530;5.454;2024-02-21T08:04:39;9.55;;;6.75;;
78732;SDS011;68056;52.530;5.454;2024-02-21T08:07:05;14.43;;;7.43;;
78732;SDS011;68056;52.530;5.454;2024-02-21T08:09:30;13.38;;;7.50;;
78732;SDS011;68056;52.530;5.454;2024-02-21T08:11:56;10.95;;;7.15;;
78732;SDS011;68056;52.530;5.454;2024-02-21T08:14:22;11.40;;;6.93;;
78732;SDS011;68056;52.530;5.454;2024-02-21T08:16:57;11.20;;;6.45;;
78732;SDS011;68056;52.530;5.454;2024-02-21T08:19:27;10.95;;;6.68;;
78732;SDS011;68056;52.530;5.454;2024-02-21T08:21:53;11.88;;;6.90;;
78732;SDS011;68056;52.530;5.454;2024-02-21T08:24:18;11.10;;;7.03;;
78732;SDS011;68056;52.530;5.454;2024-02-21T08:26:44;11.02;;;6.88;;
78732;SDS011;68056;52.530;5.454;2024-02-21T08:29:10;11.02;;;6.88;;
78732;SDS011;68056;52.530;5.454;2024-02-21T08:31:37;12.00;;;7.57;;
78732;SDS011;68056;52.530;5.454;2024-02-21T08:34:02;11.82;;;7.50;;
78732;SDS011;68056;52.530;5.454;2024-02-21T08:36:35;11.68;;;7.05;;
78732;SDS011;68056;52.530;5.454;2024-02-21T08:39:01;9.82;;;7.13;;
78732;SDS011;68056;52.530;5.454;2024-02-21T08:41:29;8.90;;;6.20;;
78732;SDS011;68056;52.530;5.454;2024-02-21T08:43:56;11.27;;;6.20;;
78732;SDS011;68056;52.530;5.454;2024-02-21T08:46:21;10.15;;;6.45;;
78732;SDS011;68056;52.530;5.454;2024-02-21T08:48:49;13.10;;;6.93;;
78732;SDS011;68056;52.530;5.454;2024-02-21T08:51:18;9.45;;;6.45;;
78732;SDS011;68056;52.530;5.454;2024-02-21T08:53:48;8.45;;;6.55;;
78732;SDS011;68056;52.530;5.454;2024-02-21T08:56:14;11.30;;;7.10;;
78732;SDS011;68056;52.530;5.454;2024-02-21T08:58:41;9.63;;;6.57;;
78732;SDS011;68056;52.530;5.454;2024-02-21T09:01:07;10.45;;;7.15;;
78732;SDS011;68056;52.530;5.454;2024-02-21T09:03:36;11.93;;;6.90;;
78732;SDS011;68056;52.530;5.454;2024-02-21T09:06:07;9.63;;;5.80;;
78732;SDS011;68056;52.530;5.454;2024-02-21T09:08:34;8.57;;;6.18;;
78732;SDS011;68056;52.530;5.454;2024-02-21T09:11:00;9.23;;;6.47;;
78732;SDS011;68056;52.530;5.454;2024-02-21T09:13:26;10.80;;;6.75;;
78732;SDS011;68056;52.530;5.454;2024-02-21T09:15:52;12.45;;;7.68;;
78732;SDS011;68056;52.530;5.454;2024-02-21T09:18:17;13.15;;;6.88;;
78732;SDS011;68056;52.530;5.454;2024-02-21T09:20:43;12.05;;;6.70;;
78732;SDS011;68056;52.530;5.454;2024-02-21T09:23:09;14.57;;;7.30;;
78732;SDS011;68056;52.530;5.454;2024-02-21T09:25:35;11.20;;;7.43;;
78732;SDS011;68056;52.530;5.454;2024-02-21T09:28:01;13.15;;;6.97;;
78732;SDS011;68056;52.530;5.454;2024-02-21T09:30:27;10.98;;;7.15;;
78732;SDS011;68056;52.530;5.454;2024-02-21T09:32:53;15.27;;;7.95;;
78732;SDS011;68056;52.530;5.454;2024-02-21T09:35:19;12.70;;;7.28;;
78732;SDS011;68056;52.530;5.454;2024-02-21T09:37:49;10.07;;;6.65;;
78732;SDS011;68056;52.530;5.454;2024-02-21T09:40:17;10.88;;;7.63;;
78732;SDS011;68056;52.530;5.454;2024-02-21T09:42:46;13.73;;;8.10;;
78732;SDS011;68056;52.530;5.454;2024-02-21T09:47:52;11.68;;;7.38;;
78732;SDS011;68056;52.530;5.454;2024-02-21T09:50:21;10.70;;;7.07;;
78732;SDS011;68056;52.530;5.454;2024-02-21T09:52:50;11.80;;;6.82;;
78732;SDS011;68056;52.530;5.454;2024-02-21T09:55:17;12.02;;;7.93;;
78732;SDS011;68056;52.530;5.454;2024-02-21T09:57:44;13.23;;;8.00;;
78732;SDS011;68056;52.530;5.454;2024-02-21T10:00:09;12.48;;;7.55;;
78732;SDS011;68056;52.530;5.454;2024-02-21T10:02:35;12.88;;;7.55;;
78732;SDS011;68056;52.530;5.454;2024-02-21T10:05:01;15.65;;;7.55;;
78732;SDS011;68056;52.530;5.454;2024-02-21T10:07:30;16.08;;;8.00;;
78732;SDS011;68056;52.530;5.454;2024-02-21T10:10:03;13.63;;;8.68;;
78732;SDS011;68056;52.530;5.454;2024-02-21T10:12:29;9.45;;;6.90;;
78732;SDS011;68056;52.530;5.454;2024-02-21T10:15:04;11.32;;;7.05;;
78732;SDS011;68056;52.530;5.454;2024-02-21T10:17:34;13.82;;;7.72;;
78732;SDS011;68056;52.530;5.454;2024-02-21T10:20:10;11.93;;;7.72;;
78732;SDS011;68056;52.530;5.454;2024-02-21T10:22:37;12.32;;;7.65;;
78732;SDS011;68056;52.530;5.454;2024-02-21T10:25:11;12.50;;;7.65;;
78732;SDS011;68056;52.530;5.454;2024-02-21T10:27:38;12.35;;;7.47;;
78732;SDS011;68056;52.530;5.454;2024-02-21T10:30:07;13.60;;;8.25;;
78732;SDS011;68056;52.530;5.454;2024-02-21T10:32:47;14.13;;;7.20;;
78732;SDS011;68056;52.530;5.454;2024-02-21T10:35:14;15.82;;;7.38;;
78732;SDS011;68056;52.530;5.454;2024-02-21T10:37:50;12.18;;;7.63;;
78732;SDS011;68056;52.530;5.454;2024-02-21T10:40:20;10.32;;;6.70;;
78732;SDS011;68056;52.530;5.454;2024-02-21T10:42:47;11.50;;;6.57;;
78732;SDS011;68056;52.530;5.454;2024-02-21T10:45:15;11.73;;;7.30;;
78732;SDS011;68056;52.530;5.454;2024-02-21T10:47:41;10.65;;;6.18;;
78732;SDS011;68056;52.530;5.454;2024-02-21T10:50:13;11.73;;;7.03;;
78732;SDS011;68056;52.530;5.454;2024-02-21T10:55:14;10.23;;;5.78;;
78732;SDS011;68056;52.530;5.454;2024-02-21T10:57:47;9.50;;;5.95;;
78732;SDS011;68056;52.530;5.454;2024-02-21T11:00:15;9.68;;;5.93;;
78732;SDS011;68056;52.530;5.454;2024-02-21T11:02:43;9.82;;;5.47;;
78732;SDS011;68056;52.530;5.454;2024-02-21T11:05:11;6.85;;;4.65;;
78732;SDS011;68056;52.530;5.454;2024-02-21T11:10:04;7.28;;;5.07;;
78732;SDS011;68056;52.530;5.454;2024-02-21T11:12:32;6.18;;;4.45;;
78732;SDS011;68056;52.530;5.454;2024-02-21T11:15:06;7.03;;;4.72;;
78732;SDS011;68056;52.530;5.454;2024-02-21T11:17:36;6.38;;;4.22;;
78732;SDS011;68056;52.530;5.454;2024-02-21T11:20:12;7.70;;;4.00;;
78732;SDS011;68056;52.530;5.454;2024-02-21T11:22:41;7.68;;;4.50;;
78732;SDS011;68056;52.530;5.454;2024-02-21T11:25:07;5.00;;;4.18;;
78732;SDS011;68056;52.530;5.454;2024-02-21T11:27:37;7.30;;;4.35;;
78732;SDS011;68056;52.530;5.454;2024-02-21T11:30:11;5.03;;;4.13;;
78732;SDS011;68056;52.530;5.454;2024-02-21T11:32:39;8.30;;;3.78;;
78732;SDS011;68056;52.530;5.454;2024-02-21T11:35:06;6.70;;;3.70;;
78732;SDS011;68056;52.530;5.454;2024-02-21T11:37:32;7.93;;;4.60;;
78732;SDS011;68056;52.530;5.454;2024-02-21T11:40:03;5.75;;;3.97;;
78732;SDS011;68056;52.530;5.454;2024-02-21T11:42:35;8.02;;;3.83;;
78732;SDS011;68056;52.530;5.454;2024-02-21T11:45:00;3.97;;;3.15;;
78732;SDS011;68056;52.530;5.454;2024-02-21T11:47:28;5.63;;;3.70;;
78732;SDS011;68056;52.530;5.454;2024-02-21T11:49:55;5.03;;;3.42;;
78732;SDS011;68056;52.530;5.454;2024-02-21T11:52:22;5.88;;;3.42;;
78732;SDS011;68056;52.530;5.454;2024-02-21T11:54:52;5.32;;;3.22;;
78732;SDS011;68056;52.530;5.454;2024-02-21T11:57:19;5.20;;;3.67;;
78732;SDS011;68056;52.530;5.454;2024-02-21T11:59:47;4.97;;;3.58;;
78732;SDS011;68056;52.530;5.454;2024-02-21T12:02:15;5.75;;;3.47;;
78732;SDS011;68056;52.530;5.454;2024-02-21T12:04:41;6.30;;;3.50;;
78732;SDS011;68056;52.530;5.454;2024-02-21T12:07:08;6.05;;;4.07;;
78732;SDS011;68056;52.530;5.454;2024-02-21T12:09:34;6.72;;;3.55;;
78732;SDS011;68056;52.530;5.454;2024-02-21T12:12:03;5.10;;;3.70;;
78732;SDS011;68056;52.530;5.454;2024-02-21T12:14:31;5.18;;;3.50;;
78732;SDS011;68056;52.530;5.454;2024-02-21T12:16:58;5.38;;;3.42;;
78732;SDS011;68056;52.530;5.454;2024-02-21T12:19:24;3.50;;;2.58;;
78732;SDS011;68056;52.530;5.454;2024-02-21T12:21:50;6.38;;;3.47;;
78732;SDS011;68056;52.530;5.454;2024-02-21T12:24:17;4.90;;;3.30;;
78732;SDS011;68056;52.530;5.454;2024-02-21T12:26:47;6.20;;;3.47;;
78732;SDS011;68056;52.530;5.454;2024-02-21T12:29:19;6.18;;;3.78;;
78732;SDS011;68056;52.530;5.454;2024-02-21T12:31:45;5.18;;;4.10;;
78732;SDS011;68056;52.530;5.454;2024-02-21T12:34:11;6.40;;;3.95;;
78732;SDS011;68056;52.530;5.454;2024-02-21T12:36:43;6.05;;;3.85;;
78732;SDS011;68056;52.530;5.454;2024-02-21T12:39:11;6.47;;;4.40;;
78732;SDS011;68056;52.530;5.454;2024-02-21T12:41:37;8.15;;;4.28;;
78732;SDS011;68056;52.530;5.454;2024-02-21T12:44:05;5.35;;;4.18;;
78732;SDS011;68056;52.530;5.454;2024-02-21T12:46:36;7.32;;;4.80;;
78732;SDS011;68056;52.530;5.454;2024-02-21T12:49:02;6.53;;;4.85;;
78732;SDS011;68056;52.530;5.454;2024-02-21T12:51:28;7.57;;;4.93;;
78732;SDS011;68056;52.530;5.454;2024-02-21T12:53:54;6.78;;;4.75;;
78732;SDS011;68056;52.530;5.454;2024-02-21T12:56:20;7.68;;;4.78;;
78732;SDS011;68056;52.530;5.454;2024-02-21T12:58:46;5.88;;;4.38;;
78732;SDS011;68056;52.530;5.454;2024-02-21T13:01:12;6.28;;;4.50;;
78732;SDS011;68056;52.530;5.454;2024-02-21T13:03:38;6.07;;;4.40;;
78732;SDS011;68056;52.530;5.454;2024-02-21T13:06:04;5.75;;;4.43;;
78732;SDS011;68056;52.530;5.454;2024-02-21T13:08:30;6.22;;;4.38;;
78732;SDS011;68056;52.530;5.454;2024-02-21T13:10:55;4.30;;;3.55;;
78732;SDS011;68056;52.530;5.454;2024-02-21T13:13:21;6.22;;;3.75;;
78732;SDS011;68056;52.530;5.454;2024-02-21T13:15:47;6.50;;;4.30;;
78732;SDS011;68056;52.530;5.454;2024-02-21T13:18:12;5.93;;;4.03;;
78732;SDS011;68056;52.530;5.454;2024-02-21T13:20:38;5.00;;;4.20;;
78732;SDS011;68056;52.530;5.454;2024-02-21T13:23:03;5.78;;;4.32;;
78732;SDS011;68056;52.530;5.454;2024-02-21T13:25:29;5.68;;;3.95;;
78732;SDS011;68056;52.530;5.454;2024-02-21T13:27:55;7.88;;;4.53;;
78732;SDS011;68056;52.530;5.454;2024-02-21T13:30:21;7.32;;;4.18;;
78732;SDS011;68056;52.530;5.454;2024-02-21T13:32:50;6.65;;;4.20;;
78732;SDS011;68056;52.530;5.454;2024-02-21T13:35:15;5.68;;;3.60;;
78732;SDS011;68056;52.530;5.454;2024-02-21T13:37:41;7.30;;;4.72;;
78732;SDS011;68056;52.530;5.454;2024-02-21T13:40:07;5.75;;;4.45;;
78732;SDS011;68056;52.530;5.454;2024-02-21T13:42:36;5.30;;;4.05;;
78732;SDS011;68056;52.530;5.454;2024-02-21T13:45:02;6.18;;;3.88;;
78732;SDS011;68056;52.530;5.454;2024-02-21T13:47:30;5.70;;;3.65;;
78732;SDS011;68056;52.530;5.454;2024-02-21T13:49:56;6.38;;;3.60;;
78732;SDS011;68056;52.530;5.454;2024-02-21T13:52:22;4.25;;;3.70;;
78732;SDS011;68056;52.530;5.454;2024-02-21T13:54:50;6.43;;;4.30;;
78732;SDS011;68056;52.530;5.454;2024-02-21T13:57:16;4.60;;;3.70;;
78732;SDS011;68056;52.530;5.454;2024-02-21T13:59:43;4.53;;;3.10;;
78732;SDS011;68056;52.530;5.454;2024-02-21T14:02:08;5.30;;;3.55;;
78732;SDS011;68056;52.530;5.454;2024-02-21T14:04:34;4.85;;;3.45;;
78732;SDS011;68056;52.530;5.454;2024-02-21T14:07:00;5.70;;;3.40;;
78732;SDS011;68056;52.530;5.454;2024-02-21T14:09:26;4.72;;;3.33;;
78732;SDS011;68056;52.530;5.454;2024-02-21T14:11:54;8.02;;;3.92;;
78732;SDS011;68056;52.530;5.454;2024-02-21T14:14:20;5.57;;;3.95;;
78732;SDS011;68056;52.530;5.454;2024-02-21T14:16:45;5.22;;;3.50;;
78732;SDS011;68056;52.530;5.454;2024-02-21T14:19:12;4.43;;;3.28;;
78732;SDS011;68056;52.530;5.454;2024-02-21T14:21:38;5.40;;;3.72;;
78732;SDS011;68056;52.530;5.454;2024-02-21T14:24:05;5.15;;;3.58;;
78732;SDS011;68056;52.530;5.454;2024-02-21T14:26:32;5.85;;;3.60;;
78732;SDS011;68056;52.530;5.454;2024-02-21T14:28:58;3.97;;;3.03;;
78732;SDS011;68056;52.530;5.454;2024-02-21T14:31:24;4.55;;;3.10;;
78732;SDS011;68056;52.530;5.454;2024-02-21T14:33:50;5.28;;;3.22;;
78732;SDS011;68056;52.530;5.454;2024-02-21T14:36:16;5.43;;;3.15;;
78732;SDS011;68056;52.530;5.454;2024-02-21T14:38:41;6.75;;;3.80;;
78732;SDS011;68056;52.530;5.454;2024-02-21T14:41:08;5.95;;;3.25;;
78732;SDS011;68056;52.530;5.454;2024-02-21T14:43:34;5.03;;;3.25;;
78732;SDS011;68056;52.530;5.454;2024-02-21T14:46:00;6.88;;;3.00;;
78732;SDS011;68056;52.530;5.454;2024-02-21T14:48:29;8.35;;;4.22;;
78732;SDS011;68056;52.530;5.454;2024-02-21T14:50:55;6.40;;;3.05;;